Latest Weather Observations for Tewantin

IDQ60901

Issued at 3:41 pm EST Sunday 15 September 2019 (issued every 10 minutes, with the page automatically refreshed every 10 minutes)

About weather observations | Map of Brisbane area stations | Latest observations for Brisbane area | Other Formats
Station Details ID: 040908 Name: TEWANTIN RSL PARK Lat: -26.39 Lon: 153.04 Height: 6.4 m
Data from the previous 72 hours. | See also: Recent months at Tewantin
Date/Time
EST
Temp
°C
App
Temp
°C
Dew
Point
°C
Rel
Hum
%
Delta-T
°C
Wind Press
QNH
hPa
Press
MSL
hPa
Rain since
9am
mm
Dir  Spd
km/h
Gust
km/h
Spd
kts
Gust
kts
15/03:30pm 21.5 19.6 12.9 58 4.9 ENE 15 22 8 12 1022.7 1022.7 0.0
15/03:00pm 22.2 20.9 13.8 59 4.9 ENE 13 22 7 12 1023.0 1023.0 0.0
15/02:30pm 22.3 21.3 13.4 57 5.1 NE 11 19 6 10 1023.0 1023.0 0.0
15/02:00pm 21.7 20.0 12.3 55 5.3 ENE 13 20 7 11 1023.2 1023.2 0.0
15/01:30pm 22.7 21.6 14.3 59 4.9 NE 13 20 7 11 1023.4 1023.4 0.0
15/01:00pm 22.6 21.5 14.4 60 4.8 NE 13 20 7 11 1023.9 1023.9 0.0
15/12:30pm 21.3 20.1 12.7 58 4.9 ESE 11 17 6 9 1024.3 1024.3 0.0
15/12:00pm 21.9 20.8 13.0 57 5.1 SE 11 19 6 10 1024.5 1024.5 0.0
15/11:30am 22.0 20.6 13.4 58 5.0 E 13 20 7 11 1024.7 1024.7 0.0
15/11:00am 21.4 20.1 13.6 61 4.5 ESE 13 20 7 11 1024.9 1024.9 0.0
15/10:30am 21.5 20.4 14.2 63 4.3 ESE 13 20 7 11 1025.2 1025.2 0.0
15/10:00am 21.9 21.3 14.5 63 4.3 ESE 11 20 6 11 1025.4 1025.4 0.0
15/09:30am 21.1 19.9 14.0 64 4.1 E 13 20 7 11 1025.5 1025.5 0.0
15/09:00am 20.7 20.1 14.6 68 3.6 ESE 11 20 6 11 1025.6 1025.6 0.0
15/08:30am 20.6 20.2 15.2 71 3.2 SE 11 17 6 9 1025.5 1025.5 0.0
15/08:00am 19.6 19.8 15.7 78 2.3 S 9 13 5 7 1025.4 1025.4 0.0
15/07:30am 18.0 17.9 14.9 82 1.8 S 9 13 5 7 1025.1 1025.1 0.0
15/07:00am 17.0 17.3 15.0 88 1.2 SSE 7 11 4 6 1024.8 1024.8 0.0
15/06:30am 16.1 17.6 15.6 97 0.3 S 2 7 1 4 1024.2 1024.2 0.0
15/06:00am 15.4 15.4 15.2 99 0.1 S 9 13 5 7 1023.7 1023.7 0.0
15/05:30am 15.3 16.7 14.5 95 0.5 CALM 0 6 0 3 1023.5 1023.5 0.0
15/05:00am 15.7 15.7 15.1 96 0.3 S 9 11 5 6 1023.0 1023.0 0.0
15/04:30am 16.0 16.3 15.0 94 0.6 SSW 7 9 4 5 1022.9 1022.9 0.0
15/04:00am 16.2 16.4 14.7 91 0.9 SSW 7 11 4 6 1022.7 1022.7 0.0
15/03:30am 16.4 16.3 14.9 91 0.9 SSW 9 15 5 8 1022.6 1022.6 0.0
15/03:00am 16.7 15.9 15.1 90 0.9 S 13 17 7 9 1022.4 1022.4 0.0
15/02:30am 16.7 15.8 14.9 89 1.0 S 13 19 7 10 1022.3 1022.3 0.0
15/02:00am 17.0 16.2 15.2 89 1.0 S 13 17 7 9 1022.6 1022.6 0.0
15/01:30am 17.2 16.9 15.4 89 1.1 S 11 17 6 9 1022.9 1022.9 0.0
15/01:00am 17.5 16.7 16.2 92 0.8 S 15 19 8 10 1023.0 1023.0 0.0
15/12:30am 17.8 17.9 17.5 98 0.2 S 13 17 7 9 1023.1 1023.1 0.0
15/12:00am 17.4 17.8 17.2 99 0.1 S 11 15 6 8 1023.2 1023.2 0.0
 
Date/Time
EST
Temp
°C
App
Temp
°C
Dew
Point
°C
Rel
Hum
%
Delta-T
°C
Wind Press
QNH
hPa
Press
MSL
hPa
Rain since
9am
mm
Dir  Spd
km/h
Gust
km/h
Spd
kts
Gust
kts
14/11:30pm 16.8 17.7 16.6 99 0.1 SSW 7 11 4 6 1023.1 1023.1 0.0
14/11:00pm 16.5 16.9 16.3 99 0.1 SSW 9 15 5 8 1023.1 1023.1 0.0
14/10:30pm 16.4 17.1 16.2 99 0.1 S 7 13 4 7 1022.9 1022.9 0.0
14/10:00pm 16.8 17.9 16.6 99 0.1 SW 6 15 3 8 1022.7 1022.7 0.0
14/09:30pm 16.8 17.7 16.6 99 0.1 SE 7 15 4 8 1022.2 1022.2 0.0
14/09:00pm 17.2 19.2 17.0 99 0.1 N 2 6 1 3 1021.5 1021.5 0.0
14/08:30pm 17.4 18.4 16.3 93 0.7 NW 6 7 3 4 1021.3 1021.3 0.0
14/08:00pm 17.8 19.8 16.1 90 1.0 CALM 0 6 0 3 1021.2 1021.2 0.0
14/07:30pm 18.5 19.5 16.8 90 1.0 NNW 7 9 4 5 1020.9 1020.9 0.0
14/07:00pm 19.0 20.1 17.0 88 1.2 NNW 7 9 4 5 1020.4 1020.4 0.0
14/06:30pm 19.5 20.4 17.6 89 1.2 N 9 13 5 7 1019.9 1019.9 0.0
14/06:00pm 20.0 20.8 17.4 85 1.6 N 9 15 5 8 1019.5 1019.5 0.0
14/05:30pm 20.5 20.8 16.9 80 2.2 N 11 17 6 9 1019.3 1019.3 0.0
14/05:00pm 21.0 21.3 17.0 78 2.4 NNE 11 19 6 10 1018.9 1018.9 0.0
14/04:30pm 21.6 21.8 17.6 78 2.5 NNE 13 22 7 12 1018.8 1018.8 0.0
14/04:00pm 21.9 21.3 17.5 76 2.7 NNE 17 24 9 13 1018.8 1018.8 0.0
14/03:30pm 22.0 21.8 16.7 72 3.2 NE 13 20 7 11 1018.7 1018.7 0.0
14/03:00pm 22.5 22.2 17.4 73 3.1 NNE 15 24 8 13 1018.7 1018.7 0.0
14/02:30pm 22.7 21.5 17.6 73 3.2 NNE 20 26 11 14 1018.8 1018.8 0.0
14/02:00pm 22.9 21.8 17.4 71 3.4 NNE 19 28 10 15 1019.0 1019.0 0.0
14/01:30pm 23.1 22.6 16.9 68 3.8 NE 15 20 8 11 1019.5 1019.5 0.0
14/01:00pm 23.5 23.2 17.3 68 3.8 NE 15 22 8 12 1019.8 1019.8 0.0
14/12:30pm 24.0 23.7 16.5 63 4.6 NE 13 20 7 11 1020.3 1020.3 0.0
14/12:00pm 24.7 24.6 15.9 58 5.3 NE 11 19 6 10 1020.9 1020.9 0.0
14/11:30am 25.0 25.4 16.4 59 5.3 NE 9 15 5 8 1021.5 1021.5 0.0
14/11:00am 24.1 24.4 15.1 57 5.4 E 7 11 4 6 1021.8 1021.8 0.0
14/10:30am 24.3 23.3 12.3 47 6.9 WNW 9 13 5 7 1022.2 1022.2 0.0
14/10:00am 23.4 23.4 14.1 56 5.4 NW 7 13 4 7 1022.5 1022.5 0.0
14/09:30am 22.4 22.8 14.8 62 4.5 NNW 6 9 3 5 1022.7 1022.7 0.0
14/09:00am 22.1 23.5 16.4 70 3.4 NE 4 7 2 4 1023.0 1023.0 0.0
14/08:30am 19.9 20.4 14.9 73 2.9 NNE 6 6 3 3 1023.0 1023.0 0.0
14/08:00am 19.2 20.4 14.9 76 2.5 NE 2 6 1 3 1023.3 1023.3 0.0
14/07:30am 17.4 19.5 16.3 93 0.7 CALM 0 6 0 3 1023.0 1023.0 0.0
14/07:00am 15.1 16.8 15.1 100 0.0 CALM 0 0 0 0 1022.8 1022.8 0.0
14/06:30am 13.6 14.7 13.6 100 0.0 CALM 0 0 0 0 1022.5 1022.5 0.0
14/06:00am 12.7 13.5 12.5 99 0.1 CALM 0 0 0 0 1022.3 1022.3 0.0
14/05:30am 13.0 13.9 12.8 99 0.1 CALM 0 0 0 0 1022.0 1022.0 0.0
14/05:00am 13.2 14.1 13.0 99 0.1 CALM 0 0 0 0 1021.8 1021.8 0.0
14/04:30am 13.6 14.7 13.4 99 0.1 CALM 0 0 0 0 1021.6 1021.6 0.0
14/04:00am 13.7 14.8 13.5 99 0.1 CALM 0 0 0 0 1021.6 1021.6 0.0
14/03:30am 13.7 14.8 13.5 99 0.1 CALM 0 0 0 0 1021.5 1021.5 0.0
14/03:00am 13.7 14.8 13.5 99 0.1 CALM 0 0 0 0 1021.5 1021.5 0.0
14/02:30am 14.3 15.6 14.1 99 0.1 CALM 0 0 0 0 1021.8 1021.8 0.0
14/02:00am 14.8 16.2 14.5 98 0.2 CALM 0 0 0 0 1022.2 1022.2 0.0
14/01:30am 15.0 16.3 14.2 95 0.5 CALM 0 0 0 0 1022.4 1022.4 0.0
14/01:00am 15.1 16.4 14.1 94 0.6 CALM 0 0 0 0 1022.7 1022.7 0.0
14/12:30am 15.2 16.3 13.6 90 0.9 CALM 0 0 0 0 1022.8 1022.8 0.0
14/12:00am 15.5 16.6 13.5 88 1.1 CALM 0 0 0 0 1022.8 1022.8 0.0
 
Date/Time
EST
Temp
°C
App
Temp
°C
Dew
Point
°C
Rel
Hum
%
Delta-T
°C
Wind Press
QNH
hPa
Press
MSL
hPa
Rain since
9am
mm
Dir  Spd
km/h
Gust
km/h
Spd
kts
Gust
kts
13/11:30pm 15.7 16.5 12.6 82 1.7 CALM 0 0 0 0 1022.9 1022.9 0.0
13/11:00pm 16.4 15.9 12.2 76 2.3 S 6 9 3 5 1022.9 1022.9 0.0
13/10:30pm 16.3 15.6 12.1 76 2.3 S 7 9 4 5 1022.6 1022.6 0.0
13/10:00pm 16.5 15.6 10.8 69 3.0 SW 6 7 3 4 1022.6 1022.6 0.0
13/09:30pm 17.0 17.1 11.5 70 3.0 SSW 2 7 1 4 1022.6 1022.6 0.0
13/09:00pm 17.7 16.9 11.7 68 3.3 SSW 7 13 4 7 1022.4 1022.4 0.0
13/08:30pm 17.8 16.8 10.9 64 3.7 SSW 7 13 4 7 1022.2 1022.2 0.0
13/08:00pm 18.5 17.2 11.1 62 4.0 SSW 9 11 5 6 1021.7 1021.7 0.0
13/07:30pm 19.2 18.3 11.3 60 4.3 S 7 11 4 6 1021.6 1021.6 0.0
13/07:00pm 19.9 19.2 11.4 58 4.7 S 6 11 3 6 1021.2 1021.2 0.0
13/06:30pm 20.7 18.7 10.2 51 5.7 S 11 13 6 7 1020.8 1020.8 0.0
13/06:00pm 21.8 20.3 9.0 44 6.8 SSE 7 11 4 6 1020.4 1020.4 0.0
13/05:30pm 22.0 20.6 8.9 43 7.0 ESE 6 9 3 5 1019.7 1019.7 0.0
13/05:00pm 22.9 22.2 11.3 48 6.5 NE 6 9 3 5 1019.3 1019.3 0.0
13/04:30pm 23.8 21.5 7.4 35 8.6 NE 9 15 5 8 1018.7 1018.7 0.0
13/04:00pm 24.3 22.2 9.8 40 7.9 NNE 11 19 6 10 1018.5 1018.5 0.0
13/03:30pm 25.7 21.4 1.1 20 11.6 E 13 20 7 11 1018.2 1018.2 0.0
13/03:00pm 26.1 21.7 2.7 22 11.4 E 15 26 8 14 1018.1 1018.1 0.0
13/02:30pm 26.3 21.6 2.9 22 11.5 ESE 17 26 9 14 1018.1 1018.1 0.0
13/02:00pm 28.5 23.6 -0.6 15 13.6 S 15 32 8 17 1017.9 1017.9 0.0
13/01:30pm 28.3 23.1 -2.7 13 13.9 SSW 15 32 8 17 1018.1 1018.1 0.0
13/01:00pm 27.6 23.6 0.4 17 12.8 SSE 11 19 6 10 1018.5 1018.5 0.0
13/12:30pm 28.0 24.0 0.7 17 13.0 SSW 11 19 6 10 1018.7 1018.7 0.0
13/12:00pm 28.3 24.6 2.5 19 12.7 SW 11 19 6 10 1019.2 1019.2 0.0
13/11:30am 27.1 24.5 6.0 26 11.0 SW 9 19 5 10 1019.7 1019.7 0.0
13/11:00am 26.3 23.9 6.9 29 10.2 WSW 9 19 5 10 1020.3 1020.3 0.0
13/10:30am 25.1 22.8 9.0 36 8.7 W 11 19 6 10 1020.8 1020.8 0.0
13/10:00am 23.9 22.3 10.2 42 7.5 WNW 9 17 5 9 1021.4 1021.4 0.0
13/09:30am 22.4 20.7 11.2 49 6.2 WNW 11 20 6 11 1021.7 1021.7 0.0
13/09:00am 21.3 20.2 13.0 59 4.7 WNW 11 19 6 10 1021.9 1021.9 0.0
13/08:30am 19.8 18.8 12.3 62 4.2 WNW 9 17 5 9 1022.2 1022.2 0.0
13/08:00am 18.9 18.6 13.3 70 3.2 WNW 7 15 4 8 1022.3 1022.3 0.0
13/07:30am 16.5 16.8 14.9 90 0.9 NNW 7 11 4 6 1022.2 1022.2 0.0
13/07:00am 14.8 14.4 14.0 95 0.4 NW 9 13 5 7 1022.0 1022.0 0.0
13/06:30am 13.6 13.5 13.4 99 0.1 NNW 6 9 3 5 1022.0 1022.0 0.0
13/06:00am 13.6 13.3 13.4 99 0.1 NW 7 9 4 5 1021.9 1021.9 0.0
13/05:30am 13.6 13.3 13.4 99 0.1 WNW 7 11 4 6 1021.6 1021.6 0.0
13/05:00am 13.2 12.8 13.0 99 0.1 WNW 7 11 4 6 1021.5 1021.5 0.0
13/04:30am 13.1 12.9 12.9 99 0.1 NNW 6 7 3 4 1021.6 1021.6 0.0
13/04:00am 13.5 13.4 13.3 99 0.1 N 6 9 3 5 1021.3 1021.3 0.0
13/03:30am 13.6 13.5 13.3 98 0.2 NNW 6 9 3 5 1021.5 1021.5 0.0
13/03:00am 13.9 13.8 13.4 97 0.3 NW 6 11 3 6 1021.8 1021.8 0.0
13/02:30am 13.6 13.5 13.4 99 0.1 WNW 6 7 3 4 1022.2 1022.2 0.0
13/02:00am 13.3 13.5 13.1 99 0.1 WNW 4 11 2 6 1022.4 1022.4 0.0
13/01:30am 12.7 12.3 12.5 99 0.1 WNW 6 7 3 4 1022.7 1022.7 0.0
13/01:00am 12.6 13.0 12.4 99 0.1 NNW 2 6 1 3 1023.0 1023.0 0.0
13/12:30am 12.5 12.5 12.3 99 0.1 NW 4 6 2 3 1023.0 1023.0 0.0
13/12:00am 12.9 12.4 12.7 99 0.1 NNW 7 9 4 5 1023.4 1023.4 0.0
 
Date/Time
EST
Temp
°C
App
Temp
°C
Dew
Point
°C
Rel
Hum
%
Delta-T
°C
Wind Press
QNH
hPa
Press
MSL
hPa
Rain since
9am
mm
Dir  Spd
km/h
Gust
km/h
Spd
kts
Gust
kts
12/11:30pm 13.2 12.8 12.9 98 0.2 NNW 7 11 4 6 1023.5 1023.5 0.0
12/11:00pm 13.8 13.7 13.2 96 0.3 NW 6 7 3 4 1023.7 1023.7 0.0
12/10:30pm 13.4 13.5 12.6 95 0.4 NW 4 7 2 4 1024.0 1024.0 0.0
12/10:00pm 13.6 14.0 12.5 93 0.6 WNW 2 6 1 3 1024.3 1024.3 0.0
12/09:30pm 14.0 13.7 12.6 91 0.8 NW 6 7 3 4 1024.4 1024.4 0.0
12/09:00pm 14.1 13.7 12.5 90 0.9 NW 6 7 3 4 1024.5 1024.5 0.0
12/08:30pm 14.4 14.6 11.9 85 1.3 W 2 7 1 4 1024.5 1024.5 0.0
12/08:00pm 15.4 15.0 12.3 82 1.7 WSW 6 9 3 5 1024.4 1024.4 0.0
12/07:30pm 16.3 17.0 12.3 77 2.2 CALM 0 0 0 0 1024.3 1024.3 0.0
12/07:00pm 16.5 17.2 12.1 75 2.4 CALM 0 0 0 0 1024.3 1024.3 0.0
12/06:30pm 17.0 17.0 12.3 74 2.6 NNE 4 7 2 4 1024.0 1024.0 0.0
12/06:00pm 17.4 17.0 12.5 73 2.7 NNE 6 7 3 4 1023.9 1023.9 0.0
12/05:30pm 18.0 17.2 11.8 67 3.4 ENE 7 13 4 7 1023.8 1023.8 0.0
12/05:00pm 18.7 17.6 12.0 65 3.7 NE 9 13 5 7 1023.6 1023.6 0.0
12/04:30pm 19.1 17.3 10.9 59 4.5 ENE 11 19 6 10 1023.7 1023.7 0.0
12/04:00pm 19.8 17.7 11.3 58 4.6 ENE 13 19 7 10 1023.4 1023.4 0.0

Latest Capital City Observations: Canberra | Sydney | Melbourne | Brisbane | Adelaide | Perth | Hobart | Darwin

Other formats

Comma delimited format used in spreadsheet applications
http://www.bom.gov.au/fwo/IDQ60901/IDQ60901.94570.axf

JavaScript Object Notation format (JSON) in row-major order
http://www.bom.gov.au/fwo/IDQ60901/IDQ60901.94570.json

Data quality

Most of these data are generated automatically and are frequently updated. Quality checks on data are not normally performed. It is possible for incorrect values to appear. Refer to information at About Latest Weather Observations and please check the disclaimer before using these data.